Richland, Missouri
Current Conditions -  °F | °C
As of 5:58 PM on Monday 24 Nov 2014 (Local Time) from KTBN Reporting Station
Few Clouds Few Clouds  
Wind Chill: 37°   Ceiling: Unl
Heat Index: 40°   Visibility: 10mi
Dew Point: 28°   Wind: 5mph
Humidity: 63%   Direction: 270°W
Pressure: 29.9"   Gusts: NA
Location:  37.86°N, 92.4°W
Report Text: KTBN 242358Z AUTO 27004KT 10SM FEW055 05/M02 A2990 RMK AO2 SLP133 T00461020 10074 20046 52030
Loading
Personal Weather Stations






























Interactive Weather Map New forecast layout! Learn more

10-Day Weather Forecast

Advertisements
Track Severe Weather on mobile